createdAt,value
2023-03-27T00:02:24.413Z,7.44
2023-03-27T00:04:55.610Z,7.40
2023-03-27T00:07:23.784Z,7.37
2023-03-27T00:09:53.531Z,7.47
2023-03-27T00:12:22.495Z,7.55
2023-03-27T00:14:53.856Z,7.59
2023-03-27T00:17:22.430Z,7.60
2023-03-27T00:19:53.826Z,7.53
2023-03-27T00:22:24.855Z,7.52
2023-03-27T00:24:53.019Z,7.63
2023-03-27T00:27:21.905Z,7.62
2023-03-27T00:29:50.605Z,7.55
2023-03-27T00:32:18.737Z,7.56
2023-03-27T00:34:47.150Z,7.50
2023-03-27T00:37:16.487Z,7.51
2023-03-27T00:39:50.133Z,7.43
2023-03-27T00:42:23.235Z,7.39
2023-03-27T00:44:52.916Z,7.40
2023-03-27T00:47:33.260Z,7.43
2023-03-27T00:50:04.331Z,7.41
2023-03-27T00:52:32.863Z,7.34
2023-03-27T00:55:03.172Z,7.33
2023-03-27T00:57:32.040Z,7.26
2023-03-27T01:00:13.044Z,7.24
2023-03-27T01:02:47.839Z,7.21
2023-03-27T01:05:17.450Z,7.19
2023-03-27T01:08:01.353Z,7.14
2023-03-27T01:10:40.986Z,7.12
2023-03-27T01:13:34.030Z,7.12
2023-03-27T01:16:28.493Z,7.08
2023-03-27T01:19:29.664Z,7.02
2023-03-27T01:22:16.846Z,7.03
2023-03-27T01:25:08.365Z,7.05
2023-03-27T01:27:58.679Z,7.01
2023-03-27T01:30:36.535Z,7.00
2023-03-27T01:33:08.642Z,7.01
2023-03-27T01:35:54.949Z,6.99
2023-03-27T01:39:01.189Z,7.00
2023-03-27T01:42:25.934Z,7.00
2023-03-27T01:44:55.407Z,7.00
2023-03-27T01:47:38.020Z,7.00
2023-03-27T01:50:15.380Z,7.03
2023-03-27T01:52:45.935Z,7.01
2023-03-27T01:55:15.977Z,7.06
2023-03-27T01:57:50.143Z,7.03
2023-03-27T02:00:22.662Z,7.01
2023-03-27T02:03:02.576Z,6.94
2023-03-27T02:05:49.382Z,6.93
2023-03-27T02:08:42.840Z,6.93
2023-03-27T02:11:17.949Z,6.99
2023-03-27T02:13:52.177Z,6.99
2023-03-27T02:16:25.591Z,6.97
2023-03-27T02:18:59.574Z,6.96
2023-03-27T02:21:31.528Z,6.94
2023-03-27T02:24:02.353Z,6.93
2023-03-27T02:26:31.132Z,6.97
2023-03-27T02:28:59.516Z,6.95
2023-03-27T02:31:43.199Z,6.97
2023-03-27T02:34:38.499Z,6.98
2023-03-27T02:37:34.932Z,6.95
2023-03-27T02:40:53.208Z,7.05
2023-03-27T02:43:53.086Z,7.00
2023-03-27T02:46:39.224Z,7.03
2023-03-27T02:49:10.946Z,6.93
2023-03-27T02:51:41.901Z,6.71
2023-03-27T02:54:16.164Z,6.56
2023-03-27T02:56:51.977Z,6.56
2023-03-27T02:59:35.937Z,6.48
2023-03-27T03:02:10.785Z,6.52
2023-03-27T03:04:57.242Z,6.51
2023-03-27T03:07:48.634Z,6.44
2023-03-27T03:10:17.056Z,6.36
2023-03-27T03:12:46.258Z,6.32
2023-03-27T03:15:15.793Z,6.31
2023-03-27T03:17:44.592Z,6.30
2023-03-27T03:20:19.341Z,6.31
2023-03-27T03:22:49.417Z,6.34
2023-03-27T03:25:19.917Z,6.35
2023-03-27T03:27:48.800Z,6.31
2023-03-27T03:30:18.480Z,6.34
2023-03-27T03:33:20.104Z,6.25
2023-03-27T03:35:49.315Z,6.22
2023-03-27T03:38:28.276Z,6.29
2023-03-27T03:40:58.621Z,6.28
2023-03-27T03:43:28.564Z,6.29
2023-03-27T03:45:58.631Z,6.25
2023-03-27T03:48:26.851Z,6.24
2023-03-27T03:50:56.209Z,6.18
2023-03-27T03:53:26.189Z,6.14
2023-03-27T03:55:54.361Z,6.13
2023-03-27T03:58:34.505Z,6.13
2023-03-27T04:01:05.927Z,6.21
2023-03-27T04:03:39.719Z,6.21
2023-03-27T04:06:11.562Z,6.21
2023-03-27T04:08:39.970Z,6.14
2023-03-27T04:11:31.155Z,6.16
2023-03-27T04:14:09.833Z,6.15
2023-03-27T04:16:42.487Z,6.22
2023-03-27T04:19:18.426Z,6.32
2023-03-27T04:21:47.900Z,6.33
2023-03-27T04:24:18.511Z,6.31
2023-03-27T04:26:48.391Z,6.25
2023-03-27T04:29:16.474Z,6.32
2023-03-27T04:32:05.920Z,6.36
2023-03-27T04:34:42.944Z,6.39
2023-03-27T04:37:30.676Z,6.43
2023-03-27T04:40:19.224Z,6.53
2023-03-27T04:42:50.594Z,6.52
2023-03-27T04:45:22.712Z,6.58
2023-03-27T04:47:56.535Z,6.65
2023-03-27T04:50:25.016Z,6.62
2023-03-27T04:52:58.944Z,6.61
2023-03-27T04:55:38.296Z,6.74
2023-03-27T04:58:08.064Z,6.81
2023-03-27T05:00:40.347Z,6.87
2023-03-27T05:03:41.128Z,7.01
2023-03-27T05:06:15.369Z,7.10
2023-03-27T05:09:15.746Z,7.13
2023-03-27T05:11:44.922Z,7.16
2023-03-27T05:14:15.203Z,7.22
2023-03-27T05:16:43.872Z,7.29
2023-03-27T05:19:12.360Z,7.42
2023-03-27T05:21:49.764Z,7.46
2023-03-27T05:24:18.516Z,7.58
2023-03-27T05:26:48.681Z,7.64
2023-03-27T05:29:17.235Z,7.85
2023-03-27T05:31:46.669Z,7.82
2023-03-27T05:34:38.688Z,7.90
2023-03-27T05:37:08.998Z,7.89
2023-03-27T05:39:49.014Z,7.95
2023-03-27T05:42:18.583Z,8.06
2023-03-27T05:44:46.905Z,8.17
2023-03-27T05:47:15.730Z,8.25
2023-03-27T05:49:44.236Z,8.32
2023-03-27T05:52:17.860Z,8.40
2023-03-27T05:54:48.798Z,8.53
2023-03-27T05:57:17.502Z,8.66
2023-03-27T05:59:49.171Z,8.71
2023-03-27T06:02:22.495Z,8.84
2023-03-27T06:05:01.723Z,8.89
2023-03-27T06:07:34.013Z,9.00
2023-03-27T06:10:14.185Z,9.15
2023-03-27T06:13:07.847Z,9.33
2023-03-27T06:15:47.502Z,9.41
2023-03-27T06:18:37.695Z,9.58
2023-03-27T06:21:09.356Z,9.63
2023-03-27T06:23:38.888Z,9.82
2023-03-27T06:26:12.308Z,9.90
2023-03-27T06:28:44.171Z,9.99
2023-03-27T06:31:14.998Z,10.11
2023-03-27T06:34:08.410Z,10.32
2023-03-27T06:36:47.114Z,10.41
2023-03-27T06:39:18.082Z,10.61
2023-03-27T06:41:53.586Z,10.83
2023-03-27T06:44:30.312Z,10.96
2023-03-27T06:47:20.663Z,11.15
2023-03-27T06:50:16.233Z,11.21
2023-03-27T06:52:51.579Z,11.33
2023-03-27T06:55:41.183Z,11.48
2023-03-27T06:58:13.514Z,11.50
2023-03-27T07:00:48.326Z,11.64
2023-03-27T07:03:21.696Z,11.78
2023-03-27T07:06:13.152Z,11.91
2023-03-27T07:08:58.764Z,11.96
2023-03-27T07:11:31.748Z,12.03
2023-03-27T07:14:07.147Z,12.11
2023-03-27T07:16:36.247Z,12.18
2023-03-27T07:19:10.245Z,12.29
2023-03-27T07:21:45.034Z,12.29
2023-03-27T07:24:16.790Z,12.38
2023-03-27T07:26:46.106Z,12.39
2023-03-27T07:29:17.915Z,12.48
2023-03-27T07:31:59.553Z,12.60
2023-03-27T07:34:38.878Z,12.62
2023-03-27T07:37:14.660Z,12.52
2023-03-27T07:40:00.460Z,12.56
2023-03-27T07:42:30.155Z,12.55
2023-03-27T07:45:09.907Z,12.60
2023-03-27T07:47:43.642Z,12.63
2023-03-27T07:50:24.130Z,12.71
2023-03-27T07:52:54.312Z,12.72
2023-03-27T07:55:30.527Z,12.71
2023-03-27T07:58:08.203Z,12.85
2023-03-27T08:00:47.702Z,12.86
2023-03-27T08:03:26.315Z,12.79
2023-03-27T08:06:02.214Z,12.81
2023-03-27T08:08:39.090Z,12.81
2023-03-27T08:11:23.090Z,12.79
2023-03-27T08:14:04.939Z,12.72
2023-03-27T08:16:33.522Z,12.66
2023-03-27T08:19:04.685Z,12.70
2023-03-27T08:21:39.258Z,12.74
2023-03-27T08:24:15.938Z,12.74
2023-03-27T08:27:07.254Z,12.73
2023-03-27T08:29:45.192Z,12.79
2023-03-27T08:32:23.053Z,12.80
2023-03-27T08:34:52.054Z,12.83
2023-03-27T08:37:24.582Z,12.80
2023-03-27T08:40:26.385Z,12.67
2023-03-27T08:43:07.384Z,12.62
2023-03-27T08:45:43.189Z,12.54
2023-03-27T08:48:23.987Z,12.50
2023-03-27T08:51:00.509Z,12.32
2023-03-27T08:53:47.671Z,12.25
2023-03-27T08:56:19.188Z,12.19
2023-03-27T08:58:50.760Z,12.15
2023-03-27T09:01:43.884Z,12.04
2023-03-27T09:04:36.396Z,11.98
2023-03-27T09:07:20.474Z,11.98
2023-03-27T09:10:34.031Z,11.98
2023-03-27T09:13:15.561Z,12.03
2023-03-27T09:16:12.723Z,12.03
2023-03-27T09:18:55.628Z,11.89
2023-03-27T09:21:52.833Z,11.76
2023-03-27T09:24:43.340Z,11.72
2023-03-27T09:27:42.694Z,11.72
2023-03-27T09:34:27.008Z,11.68
2023-03-27T09:37:20.012Z,11.64
2023-03-27T09:43:23.119Z,11.73
2023-03-27T09:45:53.409Z,11.79
2023-03-27T09:48:47.337Z,11.79
2023-03-27T09:51:40.423Z,11.87
2023-03-27T09:54:19.351Z,11.97
2023-03-27T09:57:34.193Z,11.96
2023-03-27T10:00:34.612Z,11.99
2023-03-27T10:03:06.120Z,12.00
2023-03-27T10:05:37.277Z,12.01
2023-03-27T10:08:27.183Z,12.16
2023-03-27T10:11:17.440Z,12.27
2023-03-27T10:13:57.926Z,12.28
2023-03-27T10:16:30.321Z,12.36
2023-03-27T10:19:06.990Z,12.33
2023-03-27T10:21:44.595Z,12.33
2023-03-27T10:24:22.955Z,12.39
2023-03-27T10:27:24.311Z,12.43
2023-03-27T10:30:27.938Z,12.52
2023-03-27T10:33:09.416Z,12.57
2023-03-27T10:35:52.692Z,12.64
2023-03-27T10:38:33.209Z,12.84
2023-03-27T10:41:28.265Z,12.95
2023-03-27T10:51:45.034Z,12.81
2023-03-27T10:54:48.491Z,12.74
2023-03-27T11:04:52.224Z,12.63
2023-03-27T11:07:46.798Z,12.47
2023-03-27T11:10:36.346Z,12.32
2023-03-27T11:13:35.498Z,12.44
2023-03-27T11:16:49.229Z,12.53
2023-03-27T11:19:36.522Z,12.58
2023-03-27T11:22:38.007Z,12.42
2023-03-27T11:25:41.285Z,12.34
2023-03-27T11:28:43.658Z,12.18
2023-03-27T11:31:44.464Z,12.28
2023-03-27T11:34:33.734Z,12.26
2023-03-27T11:37:36.891Z,12.22
2023-03-27T11:40:14.136Z,12.19
2023-03-27T11:42:44.442Z,12.31
2023-03-27T11:45:14.956Z,12.40
2023-03-27T11:48:21.339Z,12.43
2023-03-27T11:51:01.957Z,12.44
2023-03-27T11:53:50.995Z,12.48
2023-03-27T11:57:02.951Z,12.75
2023-03-27T12:00:32.253Z,12.77
2023-03-27T12:03:31.172Z,12.69
2023-03-27T12:06:09.820Z,12.69
2023-03-27T12:09:06.359Z,12.60
2023-03-27T12:12:00.197Z,12.51
2023-03-27T12:14:53.842Z,12.57
2023-03-27T12:17:44.143Z,12.62
2023-03-27T12:20:58.885Z,12.78
2023-03-27T12:23:58.707Z,12.54
2023-03-27T12:27:33.273Z,12.48
2023-03-27T12:30:41.468Z,12.56
2023-03-27T12:33:24.795Z,12.56
2023-03-27T12:35:55.214Z,12.52
2023-03-27T12:38:36.335Z,12.47
2023-03-27T12:41:13.585Z,12.46
2023-03-27T12:44:01.563Z,12.44
2023-03-27T12:46:39.720Z,12.48
2023-03-27T12:49:14.183Z,12.44
2023-03-27T12:51:55.562Z,12.44
2023-03-27T12:55:04.489Z,12.38
2023-03-27T12:57:52.956Z,12.34
2023-03-27T13:00:41.099Z,12.34
2023-03-27T13:03:24.164Z,12.39
2023-03-27T13:06:43.389Z,12.48
2023-03-27T13:09:17.019Z,12.37
2023-03-27T13:12:30.483Z,12.38
2023-03-27T13:15:39.672Z,12.50
2023-03-27T13:18:54.176Z,12.40
2023-03-27T13:21:35.961Z,12.26
2023-03-27T13:24:15.640Z,12.35
2023-03-27T13:26:59.867Z,12.17
2023-03-27T13:29:32.025Z,12.17
2023-03-27T13:32:34.416Z,12.25
2023-03-27T13:35:22.065Z,12.19
2023-03-27T13:38:04.642Z,12.25
2023-03-27T13:40:55.581Z,12.29
2023-03-27T13:43:36.720Z,12.29
2023-03-27T13:46:19.468Z,12.27
2023-03-27T13:49:32.953Z,12.27
2023-03-27T13:52:30.296Z,12.23
2023-03-27T13:55:19.593Z,12.20
2023-03-27T13:59:11.284Z,12.06
2023-03-27T14:02:21.260Z,12.00
2023-03-27T14:05:11.798Z,11.98
2023-03-27T14:08:20.587Z,11.89
2023-03-27T14:11:26.128Z,11.82
2023-03-27T14:14:34.962Z,11.76
2023-03-27T14:17:17.018Z,11.68
2023-03-27T14:20:01.861Z,11.66
2023-03-27T14:22:52.162Z,11.55
2023-03-27T14:25:23.050Z,11.57
2023-03-27T14:27:59.921Z,11.74
2023-03-27T14:30:34.098Z,11.82
2023-03-27T14:33:22.026Z,11.57
2023-03-27T14:36:18.430Z,11.43
2023-03-27T14:38:53.505Z,11.50
2023-03-27T14:41:32.939Z,11.47
2023-03-27T14:44:04.482Z,11.48
2023-03-27T14:46:36.532Z,11.31
2023-03-27T14:49:11.295Z,11.37
2023-03-27T14:51:49.188Z,11.34
2023-03-27T14:54:48.507Z,11.25
2023-03-27T14:57:26.211Z,11.22
2023-03-27T15:00:00.524Z,11.12
2023-03-27T15:02:35.229Z,11.02
2023-03-27T15:05:16.824Z,10.92
2023-03-27T15:07:49.942Z,10.85
2023-03-27T15:10:24.601Z,10.84
2023-03-27T15:13:13.100Z,10.74
2023-03-27T15:15:47.335Z,10.72
2023-03-27T15:18:50.255Z,10.82
2023-03-27T15:21:39.153Z,10.77
2023-03-27T15:24:14.684Z,10.75
2023-03-27T15:26:42.873Z,10.68
2023-03-27T15:29:42.785Z,10.69
2023-03-27T15:32:14.907Z,10.68
2023-03-27T15:34:58.217Z,10.76
2023-03-27T15:37:28.752Z,10.72
2023-03-27T15:40:31.209Z,10.77
2023-03-27T15:43:15.039Z,10.66
2023-03-27T15:46:02.832Z,10.61
2023-03-27T15:48:35.488Z,10.56
2023-03-27T15:51:09.766Z,10.52
2023-03-27T15:53:45.923Z,10.55
2023-03-27T15:56:14.016Z,10.57
2023-03-27T15:58:47.898Z,10.53
2023-03-27T16:01:19.876Z,10.50
2023-03-27T16:03:50.865Z,10.52
2023-03-27T16:06:27.118Z,10.54
2023-03-27T16:08:55.672Z,10.71
2023-03-27T16:11:43.864Z,10.46
2023-03-27T16:14:30.959Z,10.42
2023-03-27T16:17:11.673Z,10.38
2023-03-27T16:19:56.489Z,10.26
2023-03-27T16:22:28.409Z,10.21
2023-03-27T16:24:57.066Z,10.19
2023-03-27T16:27:34.681Z,10.14
2023-03-27T16:30:04.557Z,10.31
2023-03-27T16:32:38.810Z,10.28
2023-03-27T16:35:08.223Z,10.09
2023-03-27T16:37:38.932Z,10.06
2023-03-27T16:40:09.654Z,10.17
2023-03-27T16:42:38.120Z,10.12
2023-03-27T16:45:07.005Z,10.19
2023-03-27T16:47:35.313Z,10.13
2023-03-27T16:52:36.609Z,10.18
2023-03-27T16:55:07.300Z,10.14
2023-03-27T16:57:36.762Z,10.15
2023-03-27T17:00:06.757Z,10.18
2023-03-27T17:02:38.861Z,10.09
2023-03-27T17:05:07.986Z,10.06
2023-03-27T17:07:36.530Z,10.05
2023-03-27T17:10:12.057Z,10.05
2023-03-27T17:12:42.055Z,9.96
2023-03-27T17:15:10.864Z,9.94
2023-03-27T17:17:41.477Z,9.97
2023-03-27T17:20:10.668Z,9.97
2023-03-27T17:22:39.078Z,10.04
2023-03-27T17:25:10.334Z,10.14
2023-03-27T17:27:39.018Z,9.98
2023-03-27T17:30:08.251Z,10.09
2023-03-27T17:32:46.995Z,10.19
2023-03-27T17:35:15.812Z,10.49
2023-03-27T17:37:46.688Z,10.34
2023-03-27T17:40:15.553Z,10.27
2023-03-27T17:42:43.828Z,10.31
2023-03-27T17:45:21.587Z,10.40
2023-03-27T17:47:50.991Z,10.38
2023-03-27T17:50:19.311Z,10.36
2023-03-27T17:52:47.722Z,10.39
2023-03-27T17:55:16.450Z,10.38
2023-03-27T17:57:47.473Z,10.47
2023-03-27T18:00:20.443Z,10.48
2023-03-27T18:02:49.948Z,10.61
2023-03-27T18:05:18.284Z,10.34
2023-03-27T18:07:47.226Z,10.18
2023-03-27T18:10:21.417Z,10.22
2023-03-27T18:12:49.515Z,10.11
2023-03-27T18:15:17.704Z,10.06
2023-03-27T18:17:47.720Z,10.05
2023-03-27T18:20:16.035Z,10.06
2023-03-27T18:22:44.250Z,10.08
2023-03-27T18:25:12.943Z,10.20
2023-03-27T18:27:42.081Z,10.26
2023-03-27T18:30:13.499Z,10.21
2023-03-27T18:32:44.559Z,10.39
2023-03-27T18:35:15.416Z,10.38
2023-03-27T18:37:44.596Z,10.34
2023-03-27T18:40:15.296Z,10.33
2023-03-27T22:54:18.784Z,10.42
2023-03-27T22:56:47.294Z,10.33
2023-03-27T22:59:17.406Z,10.44
2023-03-27T23:01:45.927Z,10.48
2023-03-27T23:04:14.136Z,10.51
2023-03-27T23:06:42.299Z,10.38
2023-03-27T23:09:10.624Z,10.14
2023-03-27T23:11:38.724Z,10.05
2023-03-27T23:14:09.042Z,10.01
2023-03-27T23:16:38.817Z,10.13
2023-03-27T23:19:06.973Z,10.13
2023-03-27T23:21:35.371Z,10.05
2023-03-27T23:24:05.012Z,10.11
2023-03-27T23:26:33.906Z,10.08
2023-03-27T23:29:02.232Z,10.07
2023-03-27T23:31:30.537Z,10.15
2023-03-27T23:33:59.087Z,10.06
2023-03-27T23:36:27.182Z,9.99
2023-03-27T23:38:56.239Z,9.90
2023-03-27T23:41:25.408Z,9.95
2023-03-27T23:43:54.109Z,9.88
2023-03-27T23:46:22.317Z,9.87
2023-03-27T23:48:51.628Z,9.78
2023-03-27T23:51:22.438Z,9.76
2023-03-27T23:53:50.974Z,9.76
2023-03-27T23:56:19.137Z,9.72
2023-03-27T23:58:47.407Z,9.77
